Metar Aviation Weather Data EIDW

15°C Temp
8°C Dewpoint
% Humidity
Temperature
13 KM/H
8 MPH
7 KTS
90°
Due East

Wind Speed
Partly Cloudy
Conditions
Pressure 999.92 (hPa) - 29.53 (in)
Visibility 6.2 (mi) - 10 (km)

Current Conditions
EIDW
Metar :EIDW 221730Z 09007KT 9999 FEW022 SCT200 15/08 Q1000 NOSIG
Mon 22nd April 18:30 pm

  Metar Aviation API Data Provided by https://www.checkwx.com/ PHP scripts by weather34.com ©2019